Time;durP1;ratioP1;P1;durP2;ratioP2;P2;SDS_P1;SDS_P2;PMS_P1;PMS_P2;Temp;Humidity;BMP_temperature;BMP_pressure;BME280_temperature;BME280_humidity;BME280_pressure;Samples;Min_cycle;Max_cycle;Signal;HPM_P1;HPM_P2
2022/07/20 00:01:11;;;;;;;3.03;2.73;;;24.90;71.20;;;;;;5012064;28;20596;-65
2022/07/20 00:03:36;;;;;;;3.37;3.07;;;24.90;71.50;;;;;;5011933;28;20634;-65
2022/07/20 00:06:02;;;;;;;3.80;2.60;;;24.90;71.40;;;;;;5011814;28;20310;-65
2022/07/20 00:11:21;;;;;;;4.03;3.10;;;24.80;72.00;;;;;;5012005;28;20186;-65
2022/07/20 00:13:57;;;;;;;3.97;2.77;;;24.80;72.10;;;;;;5010900;28;20403;-65
2022/07/20 00:16:24;;;;;;;8.17;5.00;;;24.80;72.40;;;;;;5011729;28;20753;-65
2022/07/20 00:18:50;;;;;;;3.97;3.17;;;24.70;72.60;;;;;;5011649;28;20746;-65
2022/07/20 00:21:16;;;;;;;5.00;3.53;;;24.70;72.90;;;;;;5011800;28;20415;-64
2022/07/20 00:23:42;;;;;;;5.20;3.30;;;24.60;73.10;;;;;;5011812;28;20487;-65
2022/07/20 00:26:08;;;;;;;4.20;3.20;;;24.60;73.20;;;;;;5011322;28;20590;-65
2022/07/20 00:28:33;;;;;;;4.13;3.73;;;24.60;73.40;;;;;;5011421;28;20681;-65
2022/07/20 00:30:59;;;;;;;3.40;2.73;;;24.50;73.30;;;;;;5011369;28;20406;-65
2022/07/20 00:33:25;;;;;;;5.10;3.77;;;24.50;73.60;;;;;;5011544;28;20163;-65
2022/07/20 00:35:50;;;;;;;4.97;3.20;;;24.50;73.70;;;;;;5011379;28;20208;-65
2022/07/20 00:38:16;;;;;;;4.10;3.20;;;24.40;73.80;;;;;;5011449;28;20168;-64
2022/07/20 00:40:42;;;;;;;3.63;3.20;;;24.40;74.20;;;;;;5011527;28;20638;-65
2022/07/20 00:43:07;;;;;;;4.17;3.60;;;24.40;74.30;;;;;;5011510;28;20164;-64
2022/07/20 00:45:33;;;;;;;5.53;3.30;;;24.40;74.50;;;;;;5011113;28;20216;-64
2022/07/20 00:47:59;;;;;;;3.27;3.00;;;24.30;74.40;;;;;;5011299;28;20247;-64
2022/07/20 00:50:24;;;;;;;4.73;3.50;;;24.30;74.50;;;;;;5011636;28;20189;-66
2022/07/20 00:52:50;;;;;;;3.90;3.10;;;24.30;74.60;;;;;;5011795;28;20705;-65
2022/07/20 00:55:17;;;;;;;4.17;3.20;;;24.30;74.80;;;;;;5012240;28;20175;-65
2022/07/20 00:57:42;;;;;;;4.40;3.27;;;24.20;74.70;;;;;;5012513;28;20178;-65
2022/07/20 01:00:11;;;;;;;4.43;3.50;;;24.20;75.00;;;;;;5035192;23;20548;-75
2022/07/20 01:02:38;;;;;;;4.73;3.77;;;24.20;75.10;;;;;;5013713;28;20199;-73
2022/07/20 01:05:13;;;;;;;4.20;3.80;;;24.20;75.00;;;;;;5013470;28;20402;-74
2022/07/20 01:07:46;;;;;;;4.27;3.87;;;24.20;75.10;;;;;;5013685;28;20553;-74
2022/07/20 01:10:13;;;;;;;4.27;3.17;;;24.20;75.10;;;;;;5014152;28;20431;-74
2022/07/20 01:12:42;;;;;;;6.13;4.63;;;24.20;75.10;;;;;;5015568;28;20429;-74
2022/07/20 01:15:08;;;;;;;3.70;3.27;;;24.20;75.10;;;;;;5018406;28;20410;-73
2022/07/20 01:17:34;;;;;;;4.10;3.70;;;24.20;75.20;;;;;;5013561;28;20424;-73
2022/07/20 01:19:59;;;;;;;3.73;3.43;;;24.20;75.30;;;;;;5013273;28;20577;-73
2022/07/20 01:22:25;;;;;;;4.83;4.00;;;24.10;75.30;;;;;;5014304;28;20180;-73
2022/07/20 01:24:50;;;;;;;2.97;2.77;;;24.20;75.40;;;;;;5017722;28;20221;-73
2022/07/20 01:27:16;;;;;;;4.60;3.80;;;24.20;75.50;;;;;;5021979;28;20197;-72
2022/07/20 01:29:42;;;;;;;4.70;3.27;;;24.20;75.70;;;;;;5020440;28;20282;-73
2022/07/20 01:32:07;;;;;;;4.83;3.07;;;24.10;75.70;;;;;;5016012;28;20229;-72
2022/07/20 01:34:33;;;;;;;4.77;3.40;;;24.10;76.00;;;;;;5015781;28;20170;-73
2022/07/20 01:37:00;;;;;;;4.03;3.63;;;24.00;76.00;;;;;;5015905;28;20177;-73
2022/07/20 01:39:25;;;;;;;6.70;3.70;;;23.90;76.40;;;;;;5015609;28;20191;-72
2022/07/20 01:41:53;;;;;;;4.00;3.30;;;23.90;76.70;;;;;;5015843;28;20418;-74
2022/07/20 01:44:22;;;;;;;5.13;4.10;;;23.90;76.80;;;;;;5015682;28;20189;-72
2022/07/20 01:46:48;;;;;;;4.90;3.73;;;23.90;76.80;;;;;;5015550;28;20446;-72
2022/07/20 01:49:15;;;;;;;5.90;4.33;;;23.90;76.80;;;;;;5015515;28;20452;-73
2022/07/20 01:51:41;;;;;;;3.83;3.53;;;23.90;77.20;;;;;;5015579;28;20774;-72
2022/07/20 01:54:06;;;;;;;7.20;3.90;;;23.80;77.30;;;;;;5015339;28;20422;-73
2022/07/20 01:56:32;;;;;;;3.40;2.93;;;23.80;77.50;;;;;;5015344;28;20261;-73
2022/07/20 01:58:57;;;;;;;5.37;4.87;;;23.80;77.70;;;;;;5015249;28;20211;-74
2022/07/20 02:01:23;;;;;;;4.47;3.53;;;23.70;77.90;;;;;;5015314;28;20167;-72
2022/07/20 02:03:48;;;;;;;4.43;3.73;;;23.60;78.10;;;;;;5015344;28;20165;-72
2022/07/20 02:06:14;;;;;;;6.00;3.93;;;23.60;78.30;;;;;;5015008;28;20173;-73
2022/07/20 02:08:40;;;;;;;4.43;3.63;;;23.60;78.40;;;;;;5015673;28;20196;-73
2022/07/20 02:11:05;;;;;;;4.40;3.77;;;23.60;78.60;;;;;;5015876;28;20164;-74
2022/07/20 02:13:34;;;;;;;4.97;3.70;;;23.60;78.70;;;;;;5015758;28;20172;-74
2022/07/20 02:16:15;;;;;;;6.37;3.97;;;23.60;79.10;;;;;;5015780;28;20180;-73
2022/07/20 02:18:42;;;;;;;6.90;4.00;;;23.50;79.30;;;;;;5015449;28;20476;-74
2022/07/20 02:21:08;;;;;;;4.80;3.13;;;23.50;79.70;;;;;;5015856;28;20906;-73
2022/07/20 02:23:33;;;;;;;4.23;3.10;;;23.50;79.80;;;;;;5015553;28;20418;-73
2022/07/20 02:25:59;;;;;;;5.67;3.90;;;23.40;80.00;;;;;;5015476;28;20535;-72
2022/07/20 02:28:24;;;;;;;5.43;3.70;;;23.40;80.20;;;;;;5014799;28;20204;-72
2022/07/20 02:30:50;;;;;;;8.53;3.77;;;23.30;80.50;;;;;;5014658;28;20654;-71
2022/07/20 02:33:16;;;;;;;3.47;3.17;;;23.30;80.90;;;;;;5014569;28;20304;-75
2022/07/20 02:35:41;;;;;;;4.30;3.90;;;23.20;82.10;;;;;;5013359;28;20596;-73
2022/07/20 02:38:07;;;;;;;4.33;3.70;;;23.20;81.50;;;;;;5014801;28;20190;-72
2022/07/20 02:40:32;;;;;;;4.47;3.40;;;23.10;81.80;;;;;;5014521;28;20229;-72
2022/07/20 02:42:58;;;;;;;6.17;4.17;;;23.10;82.30;;;;;;5013310;28;20227;-75
2022/07/20 02:45:23;;;;;;;6.63;3.80;;;23.10;82.40;;;;;;5014595;28;20178;-74
2022/07/20 02:47:50;;;;;;;4.20;3.80;;;23.00;82.60;;;;;;5014567;28;20204;-74
2022/07/20 02:50:16;;;;;;;5.03;3.60;;;23.00;83.00;;;;;;5015050;28;20559;-73
2022/07/20 02:52:42;;;;;;;4.37;3.80;;;23.00;83.10;;;;;;5014449;28;20415;-72
2022/07/20 02:55:08;;;;;;;5.07;3.63;;;22.90;83.30;;;;;;5014113;28;20499;-72
2022/07/20 02:57:34;;;;;;;4.43;3.80;;;22.90;83.70;;;;;;5015163;28;20867;-72
2022/07/20 03:00:02;;;;;;;6.40;4.20;;;22.90;83.90;;;;;;5017894;28;20560;-72
2022/07/20 03:02:27;;;;;;;5.57;4.40;;;22.80;84.40;;;;;;5016512;28;20421;-72
2022/07/20 03:04:53;;;;;;;3.93;2.57;;;22.80;85.00;;;;;;5016589;28;20411;-73
2022/07/20 03:07:18;;;;;;;4.53;4.07;;;22.70;85.30;;;;;;5016907;28;20298;-72
2022/07/20 03:09:44;;;;;;;4.47;3.90;;;22.70;85.50;;;;;;5019224;28;20741;-73
2022/07/20 03:12:10;;;;;;;5.50;4.00;;;22.60;85.80;;;;;;5017933;28;20644;-72
2022/07/20 03:14:35;;;;;;;7.53;4.10;;;22.60;86.20;;;;;;5013587;28;20219;-73
2022/07/20 03:17:01;;;;;;;4.53;4.07;;;22.60;86.60;;;;;;5013576;28;20232;-73
2022/07/20 03:19:26;;;;;;;3.97;3.40;;;22.50;86.80;;;;;;5013503;28;20197;-72
2022/07/20 03:21:52;;;;;;;6.70;4.37;;;22.50;87.00;;;;;;5013760;28;20323;-72
2022/07/20 03:24:17;;;;;;;4.47;3.83;;;22.50;87.30;;;;;;5013250;28;20223;-72
2022/07/20 03:26:43;;;;;;;4.83;3.83;;;22.50;87.80;;;;;;5013262;28;20207;-72
2022/07/20 03:29:08;;;;;;;4.97;4.13;;;22.40;88.00;;;;;;5013249;28;20199;-72
2022/07/20 03:31:34;;;;;;;6.60;4.20;;;22.50;88.20;;;;;;5012996;28;20167;-72
2022/07/20 03:33:59;;;;;;;4.60;3.07;;;22.50;88.40;;;;;;5013260;28;20253;-72
2022/07/20 03:36:25;;;;;;;5.03;4.43;;;22.50;88.20;;;;;;5013023;28;20676;-72
2022/07/20 03:38:50;;;;;;;6.27;4.70;;;22.50;88.50;;;;;;5013049;28;20200;-74
2022/07/20 03:41:16;;;;;;;3.60;3.30;;;22.50;88.60;;;;;;5013161;28;20251;-73
2022/07/20 03:43:44;;;;;;;4.63;4.10;;;22.50;88.60;;;;;;5013077;28;20171;-73
2022/07/20 03:46:09;;;;;;;4.57;4.17;;;22.50;88.90;;;;;;5012986;28;20180;-73
2022/07/20 03:48:36;;;;;;;5.70;5.00;;;22.50;89.20;;;;;;5012660;28;20964;-73
2022/07/20 03:51:02;;;;;;;4.57;3.90;;;22.50;89.70;;;;;;5012883;28;20167;-72
2022/07/20 03:53:28;;;;;;;5.87;4.80;;;22.40;89.80;;;;;;5012830;28;20466;-73
2022/07/20 03:55:53;;;;;;;4.27;3.60;;;22.40;90.00;;;;;;5013109;28;20177;-73
2022/07/20 03:58:19;;;;;;;4.23;3.80;;;22.40;90.00;;;;;;5012788;28;20183;-72
2022/07/20 04:00:44;;;;;;;4.67;4.03;;;22.40;90.00;;;;;;5013048;28;20318;-73
2022/07/20 04:03:10;;;;;;;4.77;4.33;;;22.40;90.10;;;;;;5011507;28;20210;-72
2022/07/20 04:05:35;;;;;;;4.37;3.63;;;22.50;90.30;;;;;;5012729;28;20181;-73
2022/07/20 04:08:01;;;;;;;4.90;4.40;;;22.50;90.30;;;;;;5012653;28;20205;-73
2022/07/20 04:10:26;;;;;;;5.03;4.53;;;22.50;90.30;;;;;;5012674;28;20200;-73
2022/07/20 04:12:52;;;;;;;4.77;4.27;;;22.50;90.30;;;;;;5012684;28;20193;-73
2022/07/20 04:15:18;;;;;;;4.30;4.00;;;22.60;90.40;;;;;;5012704;28;20263;-73
2022/07/20 04:17:43;;;;;;;4.43;3.90;;;22.60;90.40;;;;;;5013085;28;20211;-73
2022/07/20 04:20:09;;;;;;;6.07;5.20;;;22.70;90.20;;;;;;5012964;28;20202;-73
2022/07/20 04:22:35;;;;;;;4.60;4.13;;;22.70;90.10;;;;;;5013754;28;20175;-72
2022/07/20 04:25:00;;;;;;;5.53;4.27;;;22.80;90.10;;;;;;5013782;28;20421;-73
2022/07/20 04:27:26;;;;;;;6.13;4.50;;;22.90;90.10;;;;;;5014174;28;20210;-74
2022/07/20 04:29:51;;;;;;;5.90;3.93;;;22.90;90.10;;;;;;5014474;28;20196;-74
2022/07/20 04:32:17;;;;;;;6.43;4.77;;;23.00;90.00;;;;;;5014544;28;20259;-73
2022/07/20 04:34:42;;;;;;;4.70;4.30;;;23.10;89.80;;;;;;5015076;28;20685;-74
2022/07/20 04:37:08;;;;;;;5.20;4.00;;;23.20;89.40;;;;;;5017551;28;20656;-73
2022/07/20 04:39:34;;;;;;;3.93;3.63;;;23.20;89.10;;;;;;5020485;28;20685;-73
2022/07/20 04:42:00;;;;;;;6.00;4.50;;;23.40;88.90;;;;;;5024784;28;20175;-73
2022/07/20 04:44:25;;;;;;;5.63;4.30;;;23.40;88.50;;;;;;5019167;28;20469;-73
2022/07/20 04:46:51;;;;;;;6.70;4.50;;;23.60;88.30;;;;;;5015273;28;20616;-73
2022/07/20 04:49:16;;;;;;;4.73;3.87;;;23.70;87.20;;;;;;5014963;28;20265;-73
2022/07/20 04:51:42;;;;;;;5.07;4.43;;;23.70;88.00;;;;;;5013989;28;20167;-73
2022/07/20 04:54:08;;;;;;;16.40;7.47;;;23.70;87.30;;;;;;5013744;28;20163;-74
2022/07/20 04:56:33;;;;;;;7.60;4.90;;;23.90;87.00;;;;;;5013690;28;20233;-73
2022/07/20 04:58:59;;;;;;;4.77;4.33;;;23.90;86.80;;;;;;5014359;28;20206;-74
2022/07/20 05:01:25;;;;;;;7.97;4.70;;;23.90;86.80;;;;;;5017510;28;20405;-74
2022/07/20 05:03:51;;;;;;;5.70;4.60;;;24.30;85.40;;;;;;5017950;28;20175;-74
2022/07/20 05:06:17;;;;;;;6.27;4.00;;;24.60;84.30;;;;;;5017401;28;20948;-73
2022/07/20 05:08:43;;;;;;;6.60;4.87;;;24.70;82.90;;;;;;5017968;28;20314;-73
2022/07/20 05:11:08;;;;;;;8.30;5.60;;;25.10;82.90;;;;;;5018418;28;20657;-73
2022/07/20 05:13:34;;;;;;;6.27;4.27;;;25.60;81.20;;;;;;5017783;28;20175;-74
2022/07/20 05:16:00;;;;;;;4.40;4.00;;;25.70;80.30;;;;;;5017559;28;20629;-74
2022/07/20 05:18:27;;;;;;;4.73;4.23;;;25.90;79.40;;;;;;5017498;28;20174;-74
2022/07/20 05:20:52;;;;;;;5.70;4.53;;;26.30;77.80;;;;;;5017243;28;20674;-73
2022/07/20 05:23:18;;;;;;;4.50;4.10;;;26.40;77.30;;;;;;5017172;28;20407;-73
2022/07/20 05:25:43;;;;;;;4.53;4.07;;;26.50;76.30;;;;;;5017143;28;20165;-73
2022/07/20 05:28:09;;;;;;;4.80;4.20;;;26.80;75.60;;;;;;5016937;28;20217;-73
2022/07/20 05:30:35;;;;;;;5.50;4.80;;;27.10;75.10;;;;;;5016473;28;20194;-74
2022/07/20 05:33:00;;;;;;;6.50;4.63;;;27.40;74.80;;;;;;5016291;28;20168;-74
2022/07/20 05:35:26;;;;;;;4.93;4.43;;;27.60;73.10;;;;;;5016238;28;20334;-74
2022/07/20 05:37:52;;;;;;;5.40;5.00;;;27.80;72.60;;;;;;5016358;28;20179;-74
2022/07/20 05:40:18;;;;;;;6.83;5.33;;;27.30;73.70;;;;;;5016412;28;20203;-73
2022/07/20 05:42:43;;;;;;;5.07;4.57;;;27.50;73.40;;;;;;5015919;28;20219;-73
2022/07/20 05:45:09;;;;;;;5.90;4.30;;;27.60;73.20;;;;;;5015071;28;20407;-74
2022/07/20 05:47:35;;;;;;;5.70;5.20;;;27.70;72.70;;;;;;5016017;28;20208;-74
2022/07/20 05:50:00;;;;;;;5.70;4.20;;;27.60;73.10;;;;;;5015914;28;20192;-74
2022/07/20 05:52:26;;;;;;;5.60;4.90;;;27.90;72.80;;;;;;5014683;28;20207;-74
2022/07/20 05:54:51;;;;;;;4.63;4.07;;;28.60;70.30;;;;;;5017454;28;20168;-74
2022/07/20 05:57:17;;;;;;;4.80;4.40;;;29.20;68.70;;;;;;5018042;28;20195;-75
2022/07/20 05:59:43;;;;;;;4.93;4.50;;;29.10;69.60;;;;;;5018187;28;20227;-74
2022/07/20 06:02:09;;;;;;;5.30;4.80;;;28.20;71.60;;;;;;5017084;28;20172;-74
2022/07/20 06:04:35;;;;;;;7.60;4.80;;;28.60;69.80;;;;;;5015981;28;20168;-73
2022/07/20 06:07:00;;;;;;;9.50;4.60;;;28.90;68.40;;;;;;5016042;28;20235;-74
2022/07/20 06:09:26;;;;;;;4.87;4.37;;;28.70;69.70;;;;;;5016209;28;20188;-73
2022/07/20 06:11:51;;;;;;;6.80;4.87;;;29.30;67.10;;;;;;5016666;28;20632;-74
2022/07/20 06:14:17;;;;;;;5.87;5.37;;;29.20;67.90;;;;;;5017163;28;20168;-74
2022/07/20 06:16:43;;;;;;;5.30;4.90;;;29.00;67.70;;;;;;5017995;28;20179;-74
2022/07/20 06:19:09;;;;;;;5.37;4.60;;;29.80;66.50;;;;;;5016082;28;20192;-72
2022/07/20 06:21:35;;;;;;;5.90;4.60;;;29.60;66.70;;;;;;5015950;28;20831;-74
2022/07/20 06:24:00;;;;;;;4.93;4.53;;;29.90;65.70;;;;;;5015563;28;20646;-73
2022/07/20 06:26:26;;;;;;;5.47;4.23;;;30.00;65.30;;;;;;5014521;28;20183;-74
2022/07/20 06:28:51;;;;;;;5.40;4.70;;;30.00;65.70;;;;;;5015829;28;20196;-73
2022/07/20 06:31:17;;;;;;;4.50;4.03;;;29.80;65.70;;;;;;5019265;28;20165;-73
2022/07/20 06:33:42;;;;;;;4.40;4.00;;;30.10;66.00;;;;;;5021777;28;20700;-72
2022/07/20 06:36:08;;;;;;;5.47;4.80;;;31.00;64.10;;;;;;5020962;28;20191;-74
2022/07/20 06:38:34;;;;;;;4.60;4.20;;;30.90;64.40;;;;;;5015245;28;20203;-73
2022/07/20 06:41:01;;;;;;;5.60;4.90;;;31.40;62.90;;;;;;5015438;28;20407;-72
2022/07/20 06:43:26;;;;;;;5.53;4.43;;;31.70;61.80;;;;;;5015449;28;20415;-72
2022/07/20 06:45:52;;;;;;;4.97;4.50;;;31.70;61.60;;;;;;5014950;28;20912;-72
2022/07/20 06:48:18;;;;;;;5.37;4.87;;;30.90;62.40;;;;;;5013647;28;20246;-72
2022/07/20 06:50:43;;;;;;;5.33;4.47;;;30.70;65.30;;;;;;5015054;28;20168;-73
2022/07/20 06:53:09;;;;;;;5.80;4.90;;;30.50;66.00;;;;;;5015236;28;20248;-73
2022/07/20 06:55:34;;;;;;;5.00;4.57;;;30.60;66.10;;;;;;5015122;28;20176;-72
2022/07/20 06:58:00;;;;;;;6.37;4.43;;;30.70;66.50;;;;;;5014790;28;20168;-72
2022/07/20 07:00:27;;;;;;;4.90;4.20;;;30.80;66.80;;;;;;5035987;23;20224;-65
2022/07/20 07:02:53;;;;;;;5.57;5.07;;;31.40;63.70;;;;;;5012676;28;20196;-65
2022/07/20 07:05:18;;;;;;;5.60;4.93;;;31.70;63.00;;;;;;5012822;28;20427;-65
2022/07/20 07:07:44;;;;;;;5.63;5.10;;;32.40;60.80;;;;;;5012726;28;20204;-65
2022/07/20 07:10:09;;;;;;;10.00;4.87;;;31.40;61.80;;;;;;5012668;28;20180;-65
2022/07/20 07:12:35;;;;;;;5.00;4.43;;;31.90;60.80;;;;;;5012575;28;20176;-65
2022/07/20 07:15:01;;;;;;;5.23;4.73;;;32.40;60.70;;;;;;5012480;28;20520;-64
2022/07/20 07:17:27;;;;;;;5.23;4.33;;;32.70;59.90;;;;;;5012380;28;20195;-64
2022/07/20 07:19:53;;;;;;;5.90;5.30;;;32.70;63.20;;;;;;5012316;28;20198;-65
2022/07/20 07:22:18;;;;;;;4.00;3.60;;;32.90;59.60;;;;;;5011821;28;20803;-66
2022/07/20 07:24:44;;;;;;;4.60;4.20;;;33.70;58.40;;;;;;5012228;28;20178;-65
2022/07/20 07:27:10;;;;;;;5.40;4.30;;;34.50;57.10;;;;;;5012281;28;20642;-66
2022/07/20 07:29:35;;;;;;;4.80;4.30;;;33.90;60.50;;;;;;5012427;28;20662;-65
2022/07/20 07:32:01;;;;;;;4.90;4.50;;;32.60;58.90;;;;;;5012144;28;20171;-65
2022/07/20 07:34:28;;;;;;;6.77;5.50;;;32.50;59.90;;;;;;5011913;28;20180;-66
2022/07/20 07:36:54;;;;;;;5.50;4.63;;;33.10;60.00;;;;;;5012008;28;20172;-65
2022/07/20 07:39:19;;;;;;;4.43;3.87;;;32.70;60.60;;;;;;5011993;28;20788;-66
2022/07/20 07:41:45;;;;;;;6.70;5.47;;;33.70;58.00;;;;;;5012216;28;20164;-65
2022/07/20 07:44:10;;;;;;;5.10;4.07;;;33.70;59.10;;;;;;5012316;28;20626;-66
2022/07/20 07:46:36;;;;;;;5.47;4.90;;;33.60;59.70;;;;;;5012166;28;20168;-65
2022/07/20 07:49:02;;;;;;;6.10;5.00;;;34.60;56.80;;;;;;5012369;28;20210;-64
2022/07/20 07:51:28;;;;;;;7.83;4.40;;;34.90;56.10;;;;;;5012540;28;20665;-65
2022/07/20 07:53:53;;;;;;;5.03;4.53;;;34.60;57.50;;;;;;5012227;28;20403;-65
2022/07/20 07:56:19;;;;;;;7.00;4.80;;;33.30;57.70;;;;;;5012011;28;20165;-64
2022/07/20 07:58:45;;;;;;;4.50;4.20;;;33.80;58.90;;;;;;5011710;28;20271;-65
2022/07/20 08:01:11;;;;;;;5.87;4.23;;;34.70;55.70;;;;;;5011544;28;20179;-65
2022/07/20 08:03:36;;;;;;;4.73;4.33;;;34.20;58.10;;;;;;5011491;28;20176;-65
2022/07/20 08:06:03;;;;;;;6.43;4.57;;;35.30;55.30;;;;;;5011194;28;20720;-65
2022/07/20 08:08:30;;;;;;;3.87;3.57;;;35.30;55.90;;;;;;5011234;28;20315;-65
2022/07/20 08:10:55;;;;;;;5.30;4.37;;;35.40;55.00;;;;;;5011689;28;20759;-66
2022/07/20 08:13:21;;;;;;;4.80;4.40;;;36.10;53.70;;;;;;5011416;28;20490;-65
2022/07/20 08:15:46;;;;;;;4.87;4.40;;;36.70;53.90;;;;;;5011237;28;20251;-65
2022/07/20 08:18:12;;;;;;;5.67;4.10;;;36.70;52.60;;;;;;5011175;28;20211;-65
2022/07/20 08:20:37;;;;;;;3.70;3.40;;;37.50;52.10;;;;;;5011163;28;20219;-65
2022/07/20 08:23:03;;;;;;;5.33;3.97;;;37.00;52.20;;;;;;5011142;28;20176;-63
2022/07/20 08:25:29;;;;;;;4.37;3.97;;;35.90;54.40;;;;;;5011293;28;20194;-65
2022/07/20 08:27:54;;;;;;;3.90;3.37;;;35.80;55.10;;;;;;5010903;28;20634;-65
2022/07/20 08:30:21;;;;;;;5.70;3.87;;;36.00;54.30;;;;;;5011070;28;20188;-64
2022/07/20 08:32:46;;;;;;;4.80;4.40;;;35.80;54.20;;;;;;5010813;28;20187;-64
2022/07/20 08:35:12;;;;;;;4.63;4.30;;;34.70;56.20;;;;;;5010070;28;20414;-65
2022/07/20 08:37:38;;;;;;;4.30;4.00;;;35.90;57.00;;;;;;5011069;28;20246;-65
2022/07/20 08:40:05;;;;;;;4.67;4.27;;;37.30;50.20;;;;;;5010942;28;20192;-64
2022/07/20 08:42:31;;;;;;;5.20;4.43;;;37.40;50.40;;;;;;5011038;28;20400;-64
2022/07/20 08:44:57;;;;;;;4.03;3.20;;;36.50;52.40;;;;;;5010934;28;20406;-64
2022/07/20 08:47:25;;;;;;;4.30;3.90;;;36.70;52.00;;;;;;5010827;28;20587;-64
2022/07/20 08:49:51;;;;;;;3.73;3.37;;;36.70;53.70;;;;;;5009640;28;20200;-64
2022/07/20 08:52:18;;;;;;;3.97;3.60;;;37.00;51.80;;;;;;5010890;28;20542;-64
2022/07/20 08:54:44;;;;;;;3.93;3.63;;;36.40;52.60;;;;;;5010766;28;20403;-64
2022/07/20 08:57:11;;;;;;;4.30;3.67;;;36.60;51.20;;;;;;5011080;28;20426;-65
2022/07/20 08:59:37;;;;;;;10.57;4.03;;;38.20;49.20;;;;;;5010671;28;20451;-65
2022/07/20 09:02:05;;;;;;;3.70;3.33;;;37.20;51.90;;;;;;5010774;28;20426;-66
2022/07/20 09:04:31;;;;;;;3.60;3.30;;;36.40;51.50;;;;;;5010749;28;20737;-66
2022/07/20 09:06:57;;;;;;;4.43;3.00;;;35.90;52.50;;;;;;5010715;28;20994;-65
2022/07/20 09:09:24;;;;;;;3.47;3.17;;;37.20;50.70;;;;;;5011440;28;20423;-65
2022/07/20 09:11:50;;;;;;;3.40;3.00;;;37.80;49.20;;;;;;5011766;28;20407;-65
2022/07/20 09:14:36;;;;;;;5.87;3.53;;;36.50;51.40;;;;;;5011151;28;20508;-66
2022/07/20 09:17:15;;;;;;;4.90;3.00;;;37.50;49.60;;;;;;5010923;28;20711;-66
2022/07/20 09:20:06;;;;;;;4.77;4.37;;;37.10;50.60;;;;;;5011386;28;20437;-66
2022/07/20 09:22:37;;;;;;;5.00;4.60;;;38.70;46.90;;;;;;5011330;28;20826;-65
2022/07/20 09:25:14;;;;;;;5.00;4.60;;;39.20;45.50;;;;;;5010739;28;20418;-65
2022/07/20 09:27:40;;;;;;;7.20;4.30;;;37.80;48.40;;;;;;5010923;28;20461;-65
2022/07/20 09:30:10;;;;;;;5.57;2.57;;;38.00;48.20;;;;;;5010274;28;20427;-65
2022/07/20 09:32:49;;;;;;;3.50;3.20;;;38.40;44.90;;;;;;5010621;28;20457;-64
2022/07/20 09:35:15;;;;;;;2.83;2.63;;;37.80;45.90;;;;;;5010412;28;20905;-65
2022/07/20 09:37:40;;;;;;;3.53;3.23;;;37.00;47.90;;;;;;5010564;28;20449;-64
2022/07/20 09:40:07;;;;;;;2.97;2.67;;;38.40;45.80;;;;;;5010482;28;20191;-65
2022/07/20 09:42:41;;;;;;;3.47;3.17;;;38.70;44.70;;;;;;5010588;28;20184;-65
2022/07/20 09:45:27;;;;;;;3.43;3.13;;;39.70;43.50;;;;;;5011384;28;20399;-64
2022/07/20 09:48:12;;;;;;;4.13;3.20;;;38.60;45.00;;;;;;5014213;28;21058;-65
2022/07/20 09:50:44;;;;;;;4.00;3.13;;;38.90;43.60;;;;;;5014346;28;20419;-65
2022/07/20 09:53:10;;;;;;;4.70;3.50;;;39.20;43.50;;;;;;5014422;28;20414;-65
2022/07/20 09:55:37;;;;;;;4.47;3.40;;;38.10;44.60;;;;;;5014066;28;20395;-66
2022/07/20 09:58:04;;;;;;;2.80;2.60;;;37.70;46.50;;;;;;5014056;28;20793;-66
2022/07/20 10:00:31;;;;;;;4.67;2.87;;;38.10;43.90;;;;;;5013734;28;20447;-65
2022/07/20 10:02:59;;;;;;;2.97;2.77;;;39.20;42.80;;;;;;5013779;28;20445;-66
2022/07/20 10:05:29;;;;;;;2.93;2.73;;;38.50;43.90;;;;;;5013490;28;20425;-65
2022/07/20 10:07:55;;;;;;;3.90;2.87;;;38.90;42.80;;;;;;5013981;28;20462;-65
2022/07/20 10:10:21;;;;;;;2.60;2.33;;;37.50;44.80;;;;;;5013759;28;20442;-65
2022/07/20 10:12:47;;;;;;;3.00;2.80;;;37.70;44.10;;;;;;5013485;28;20407;-64
2022/07/20 10:15:16;;;;;;;3.70;2.83;;;37.70;43.20;;;;;;5013218;28;20179;-64
2022/07/20 10:17:43;;;;;;;3.97;3.03;;;37.70;43.20;;;;;;5013316;28;20399;-64
2022/07/20 10:20:33;;;;;;;2.80;2.60;;;36.90;44.20;;;;;;5013615;28;20443;-64
2022/07/20 10:23:29;;;;;;;4.33;3.93;;;37.20;43.40;;;;;;5013781;28;20399;-65
2022/07/20 10:25:56;;;;;;;3.43;3.13;;;36.90;42.80;;;;;;4996181;28;20434;-65
2022/07/20 10:28:27;;;;;;;3.47;2.97;;;37.40;43.40;;;;;;5012898;28;20895;-64
2022/07/20 10:30:53;;;;;;;3.10;2.90;;;37.00;43.10;;;;;;5012944;28;20483;-64
2022/07/20 10:33:19;;;;;;;2.80;2.60;;;36.90;43.80;;;;;;5013089;28;20403;-65
2022/07/20 10:35:47;;;;;;;3.40;3.10;;;37.10;42.90;;;;;;5012928;28;20425;-64
2022/07/20 10:38:20;;;;;;;3.77;2.90;;;36.80;43.30;;;;;;5012846;28;20433;-64
2022/07/20 10:44:21;;;;;;;3.27;2.97;;;36.60;42.50;;;;;;5012945;28;20429;-65
2022/07/20 10:46:49;;;;;;;2.87;2.50;;;36.50;42.10;;;;;;5012512;28;20430;-65
2022/07/20 10:49:15;;;;;;;6.87;2.77;;;36.90;41.80;;;;;;5012597;28;20423;-65
2022/07/20 10:51:41;;;;;;;2.57;2.37;;;36.20;42.40;;;;;;5012811;28;20396;-64
2022/07/20 10:54:34;;;;;;;3.50;3.00;;;35.70;41.90;;;;;;5012909;28;20419;-64
2022/07/20 10:57:01;;;;;;;3.13;2.83;;;36.10;42.00;;;;;;5012171;28;20180;-64
2022/07/20 10:59:27;;;;;;;3.17;2.97;;;36.10;42.10;;;;;;5012542;28;20515;-65
2022/07/20 11:01:53;;;;;;;3.53;2.97;;;36.00;42.80;;;;;;5012594;28;20419;-65
2022/07/20 11:04:21;;;;;;;6.00;2.97;;;35.90;42.50;;;;;;5012720;28;20969;-65
2022/07/20 11:06:47;;;;;;;3.10;2.67;;;36.00;42.50;;;;;;5012992;28;20561;-65
2022/07/20 11:09:12;;;;;;;2.97;2.67;;;35.90;42.90;;;;;;5012922;28;20972;-64
2022/07/20 11:11:39;;;;;;;2.70;2.50;;;35.90;43.40;;;;;;5012982;28;20754;-65
2022/07/20 11:14:06;;;;;;;4.00;3.00;;;36.30;43.70;;;;;;5013280;28;20164;-65
2022/07/20 11:16:34;;;;;;;2.90;2.70;;;36.50;42.60;;;;;;5012860;28;20493;-65
2022/07/20 11:19:02;;;;;;;3.53;2.97;;;36.30;42.20;;;;;;5012698;28;20541;-64
2022/07/20 11:21:38;;;;;;;3.50;2.50;;;36.30;41.60;;;;;;5012757;28;20410;-64
2022/07/20 11:24:24;;;;;;;3.40;2.50;;;36.30;41.00;;;;;;5012929;28;20395;-65
2022/07/20 11:26:51;;;;;;;3.87;2.60;;;35.90;41.40;;;;;;5011877;28;20506;-65
2022/07/20 11:29:16;;;;;;;3.53;3.23;;;35.90;41.20;;;;;;5012448;28;20426;-65
2022/07/20 11:31:42;;;;;;;3.63;2.80;;;36.30;41.20;;;;;;5012850;28;20403;-65
2022/07/20 11:34:11;;;;;;;2.37;2.17;;;36.40;42.30;;;;;;5012660;28;20168;-65
2022/07/20 11:36:37;;;;;;;5.07;3.17;;;36.60;41.80;;;;;;5012500;28;20399;-63
2022/07/20 11:39:06;;;;;;;3.70;2.63;;;36.60;40.70;;;;;;5012270;28;20474;-64
2022/07/20 11:41:42;;;;;;;2.77;2.33;;;36.40;40.20;;;;;;5012306;28;20226;-64
2022/07/20 11:44:15;;;;;;;3.10;2.80;;;36.40;40.10;;;;;;5012153;28;20395;-64
2022/07/20 11:46:42;;;;;;;3.30;3.00;;;36.20;40.20;;;;;;5012018;28;20474;-64
2022/07/20 11:49:13;;;;;;;2.70;2.30;;;35.90;40.30;;;;;;5012102;28;20427;-64
2022/07/20 11:51:40;;;;;;;3.07;2.40;;;35.90;40.60;;;;;;5012012;28;20399;-64
2022/07/20 11:54:09;;;;;;;2.80;2.40;;;35.90;39.90;;;;;;5012205;28;20476;-65
2022/07/20 11:56:37;;;;;;;3.20;2.10;;;36.00;40.20;;;;;;5012007;28;20951;-65
2022/07/20 11:59:07;;;;;;;2.80;2.43;;;36.00;39.60;;;;;;5011796;28;20447;-65
2022/07/20 12:01:36;;;;;;;2.70;2.50;;;35.90;40.10;;;;;;5012061;28;20395;-65
2022/07/20 12:04:07;;;;;;;2.80;2.30;;;35.90;40.40;;;;;;5012035;28;20403;-65
2022/07/20 12:06:38;;;;;;;2.83;2.63;;;35.90;40.20;;;;;;5011574;28;20403;-64
2022/07/20 12:09:10;;;;;;;5.17;2.53;;;36.20;40.30;;;;;;5011508;28;20537;-64
2022/07/20 12:12:05;;;;;;;2.60;2.40;;;36.40;40.00;;;;;;5011691;28;20423;-64
2022/07/20 12:14:35;;;;;;;3.80;3.03;;;36.40;39.90;;;;;;5011690;28;20423;-64
2022/07/20 12:17:14;;;;;;;3.00;2.70;;;36.40;39.80;;;;;;5011833;28;20413;-65
2022/07/20 12:19:45;;;;;;;3.70;3.40;;;36.60;40.70;;;;;;5011675;28;20427;-66
2022/07/20 12:22:18;;;;;;;2.77;2.57;;;36.70;39.30;;;;;;5011723;28;20407;-66
2022/07/20 12:24:59;;;;;;;2.97;2.77;;;36.40;40.00;;;;;;5011744;28;20411;-65
2022/07/20 12:27:33;;;;;;;2.90;2.60;;;36.60;40.20;;;;;;5011738;28;20473;-65
2022/07/20 12:30:00;;;;;;;3.00;2.80;;;36.70;40.00;;;;;;5011694;28;20795;-65
2022/07/20 12:32:37;;;;;;;3.60;3.30;;;36.70;40.20;;;;;;5011990;28;20399;-65
2022/07/20 12:35:06;;;;;;;3.27;2.97;;;36.60;40.10;;;;;;5012191;28;20900;-64
2022/07/20 12:37:50;;;;;;;2.80;2.40;;;36.70;40.10;;;;;;5011475;28;20494;-66
2022/07/20 12:40:49;;;;;;;4.57;3.47;;;36.60;40.20;;;;;;5011922;28;20445;-66
2022/07/20 12:43:35;;;;;;;3.13;2.87;;;36.70;40.20;;;;;;5011604;28;20410;-65
2022/07/20 12:46:07;;;;;;;2.83;2.60;;;36.50;40.10;;;;;;5011416;28;20525;-66
2022/07/20 12:48:39;;;;;;;4.23;2.53;;;36.60;40.90;;;;;;5011458;28;20450;-67
2022/07/20 12:51:07;;;;;;;2.87;2.57;;;36.60;40.10;;;;;;5011410;28;20498;-66
2022/07/20 12:53:33;;;;;;;3.50;2.80;;;36.50;39.40;;;;;;5011294;28;20407;-66